createdAt,value
2023-01-17T04:48:07.390Z,98066.34
2023-01-17T04:51:10.488Z,98066.34
2023-01-17T04:54:12.876Z,98079.97
2023-01-17T04:57:16.706Z,98075.31
2023-01-17T05:00:19.618Z,98068.91
2023-01-17T05:03:23.201Z,98070.09
2023-01-17T05:06:25.610Z,98066.28
2023-01-17T05:09:28.298Z,98075.53
2023-01-17T05:12:30.819Z,98074.22
2023-01-17T05:15:33.563Z,98074.13
2023-01-17T05:18:36.047Z,98074.88
2023-01-17T05:21:38.747Z,98077.28
2023-01-17T05:24:44.653Z,98074.50
2023-01-17T05:27:47.322Z,98078.31
2023-01-17T05:30:49.924Z,98084.44
2023-01-17T05:33:52.513Z,98076.75
2023-01-17T05:36:55.094Z,98078.59
2023-01-17T05:39:57.780Z,98080.47
2023-01-17T05:43:02.902Z,98084.06
2023-01-17T05:46:05.774Z,98093.34
2023-01-17T05:49:08.768Z,98095.00
2023-01-17T05:52:11.810Z,98094.75
2023-01-17T05:55:15.506Z,98114.09
2023-01-17T05:58:21.420Z,98116.63
2023-01-17T06:01:24.687Z,98122.62
2023-01-17T06:04:27.346Z,98126.28
2023-01-17T06:07:29.734Z,98131.28
2023-01-17T06:10:32.730Z,98140.25
2023-01-17T06:13:35.084Z,98144.78
2023-01-17T06:16:37.791Z,98137.75
2023-01-17T06:19:40.161Z,98142.84
2023-01-17T06:22:42.767Z,98149.81
2023-01-17T06:25:46.811Z,98147.31
2023-01-17T06:28:49.887Z,98145.94
2023-01-17T06:31:52.477Z,98155.19
2023-01-17T06:34:55.441Z,98154.72
2023-01-17T06:37:59.751Z,98157.53
2023-01-17T06:41:05.930Z,98160.22
2023-01-17T06:44:09.869Z,98167.53
2023-01-17T06:47:12.548Z,98179.31
2023-01-17T06:50:15.070Z,98177.94
2023-01-17T06:53:18.031Z,98185.47
2023-01-17T06:56:21.098Z,98200.75
2023-01-17T06:59:24.269Z,98206.69
2023-01-17T07:02:27.011Z,98212.06
2023-01-17T07:05:29.966Z,98218.84
2023-01-17T07:08:32.821Z,98216.03
2023-01-17T07:11:35.653Z,98228.94
2023-01-17T07:14:38.479Z,98229.69
2023-01-17T07:17:41.676Z,98237.38
2023-01-17T07:20:44.401Z,98248.41
2023-01-17T07:23:48.151Z,98246.66
2023-01-17T07:26:51.601Z,98254.53
2023-01-17T07:29:55.421Z,98254.31
2023-01-17T07:32:58.114Z,98262.13
2023-01-17T07:36:09.366Z,98269.44
2023-01-17T07:39:12.369Z,98281.03
2023-01-17T07:42:15.381Z,98289.84
2023-01-17T07:45:18.866Z,98294.00
2023-01-17T07:48:23.570Z,98297.53
2023-01-17T07:51:25.933Z,98296.69
2023-01-17T07:54:28.640Z,98302.53
2023-01-17T07:57:32.524Z,98312.81
2023-01-17T08:00:35.277Z,98327.34
2023-01-17T08:03:42.092Z,98326.94
2023-01-17T08:06:50.698Z,98330.31
2023-01-17T08:09:54.732Z,98327.44
2023-01-17T08:12:57.262Z,98332.75
2023-01-17T08:16:02.399Z,98330.75
2023-01-17T08:19:04.916Z,98324.56
2023-01-17T08:22:09.517Z,98334.97
2023-01-17T08:25:12.650Z,98349.94
2023-01-17T08:28:15.952Z,98341.59
2023-01-17T08:31:19.873Z,98346.75
2023-01-17T08:34:24.427Z,98342.72
2023-01-17T08:37:26.946Z,98359.31
2023-01-17T08:40:29.700Z,98356.50
2023-01-17T08:43:32.536Z,98361.97
2023-01-17T08:46:38.244Z,98368.06
2023-01-17T08:49:40.974Z,98373.19
2023-01-17T08:52:43.797Z,98378.94
2023-01-17T08:55:46.557Z,98379.84
2023-01-17T08:58:49.434Z,98383.78
2023-01-17T09:01:52.542Z,98389.75
2023-01-17T09:04:55.314Z,98391.25
2023-01-17T09:07:57.660Z,98380.84
2023-01-17T09:11:08.811Z,98378.78
2023-01-17T09:14:13.125Z,98375.47
2023-01-17T09:17:16.002Z,98391.03
2023-01-17T09:20:18.843Z,98386.81
2023-01-17T09:23:30.037Z,98398.03
2023-01-17T09:26:32.404Z,98389.12
2023-01-17T09:29:35.072Z,98390.53
2023-01-17T09:32:37.696Z,98388.44
2023-01-17T09:35:40.526Z,98400.06
2023-01-17T09:38:43.066Z,98406.91
2023-01-17T09:41:54.617Z,98410.53
2023-01-17T09:44:57.853Z,98414.91
2023-01-17T09:48:07.281Z,98425.34
2023-01-17T09:51:18.823Z,98434.59
2023-01-17T09:54:32.440Z,98446.91
2023-01-17T09:57:54.073Z,98451.13
2023-01-17T10:01:15.682Z,98451.13
2023-01-17T10:04:27.600Z,98448.63
2023-01-17T10:07:51.833Z,98452.06
2023-01-17T10:11:15.592Z,98456.44
2023-01-17T10:14:35.528Z,98452.81
2023-01-17T10:18:19.136Z,98450.97
2023-01-17T10:21:37.449Z,98462.28
2023-01-17T10:24:42.978Z,98456.81
2023-01-17T10:27:58.950Z,98455.88
2023-01-17T10:31:10.371Z,98451.16
2023-01-17T10:34:20.922Z,98457.59
2023-01-17T10:37:43.447Z,98457.97
2023-01-17T10:40:55.299Z,98442.91
2023-01-17T10:44:15.628Z,98432.38
2023-01-17T10:47:24.640Z,98432.69
2023-01-17T10:50:29.097Z,98416.56
2023-01-17T10:54:05.687Z,98416.56
2023-01-17T10:57:18.638Z,98417.41
2023-01-17T11:00:45.426Z,98417.03
2023-01-17T11:03:51.047Z,98412.38
2023-01-17T11:07:13.264Z,98402.66
2023-01-17T11:10:39.819Z,98394.97
2023-01-17T11:13:42.455Z,98389.19
2023-01-17T11:16:45.250Z,98380.22
2023-01-17T11:19:51.248Z,98380.97
2023-01-17T11:23:03.007Z,98372.41
2023-01-17T11:26:07.654Z,98370.53
2023-01-17T11:29:36.826Z,98367.31
2023-01-17T11:32:52.746Z,98365.34
2023-01-17T11:35:56.493Z,98350.22
2023-01-17T11:39:21.900Z,98350.06
2023-01-17T11:43:00.012Z,98350.16
2023-01-17T11:46:17.962Z,98340.75
2023-01-17T11:49:25.409Z,98338.66
2023-01-17T11:52:37.487Z,98338.16
2023-01-17T11:55:40.743Z,98341.09
2023-01-17T11:58:45.896Z,98344.44
2023-01-17T12:02:01.642Z,98353.19
2023-01-17T12:05:18.369Z,98369.94
2023-01-17T12:08:57.677Z,98377.47
2023-01-17T12:12:34.667Z,98387.69
2023-01-17T12:15:56.001Z,98381.53
2023-01-17T12:19:22.773Z,98379.56
2023-01-17T12:22:46.573Z,98374.22
2023-01-17T12:25:55.861Z,98367.44
2023-01-17T12:29:07.449Z,98364.44
2023-01-17T12:32:32.131Z,98364.19
2023-01-17T12:35:53.388Z,98360.34
2023-01-17T12:38:58.574Z,98360.59
2023-01-17T12:42:18.701Z,98374.59
2023-01-17T12:45:28.486Z,98370.09
2023-01-17T12:48:36.587Z,98367.94
2023-01-17T12:51:43.532Z,98374.19
2023-01-17T12:54:53.569Z,98364.50
2023-01-17T12:58:00.364Z,98361.03
2023-01-17T13:01:16.787Z,98360.22
2023-01-17T13:04:34.263Z,98359.59
2023-01-17T13:07:51.488Z,98356.19
2023-01-17T13:11:33.499Z,98351.59
2023-01-17T13:14:36.019Z,98347.63
2023-01-17T13:17:48.167Z,98359.09
2023-01-17T13:21:10.577Z,98363.59
2023-01-17T13:24:31.083Z,98359.84
2023-01-17T13:27:52.982Z,98379.16
2023-01-17T13:31:12.675Z,98374.47
2023-01-17T13:34:38.443Z,98373.09
2023-01-17T13:37:56.717Z,98368.50
2023-01-17T13:41:34.003Z,98355.13
2023-01-17T13:44:37.425Z,98352.25
2023-01-17T13:47:41.702Z,98353.69
2023-01-17T13:50:47.335Z,98347.94
2023-01-17T13:53:49.775Z,98344.00
2023-01-17T13:57:43.242Z,98337.31
2023-01-17T14:00:45.667Z,98332.00
2023-01-17T14:03:51.944Z,98322.50
2023-01-17T14:06:58.003Z,98317.50
2023-01-17T14:10:01.170Z,98312.22
2023-01-17T14:13:06.509Z,98297.00
2023-01-17T14:16:27.504Z,98293.00
2023-01-17T14:19:36.346Z,98275.59
2023-01-17T14:23:01.011Z,98278.00
2023-01-17T14:26:32.737Z,98267.25
2023-01-17T14:29:57.023Z,98278.31
2023-01-17T14:33:03.086Z,98262.87
2023-01-17T14:36:08.674Z,98247.06
2023-01-17T14:39:22.436Z,98235.41
2023-01-17T14:42:27.895Z,98225.69
2023-01-17T14:45:33.419Z,98230.50
2023-01-17T14:48:40.119Z,98235.91
2023-01-17T14:51:42.964Z,98235.91
2023-01-17T14:54:50.989Z,98221.03
2023-01-17T14:57:57.284Z,98220.81
2023-01-17T15:01:14.826Z,98210.81
2023-01-17T15:04:30.116Z,98216.75
2023-01-17T15:07:32.882Z,98215.41
2023-01-17T15:10:35.947Z,98222.16
2023-01-17T15:13:45.236Z,98220.91
2023-01-17T15:16:47.963Z,98229.44
2023-01-17T15:19:59.591Z,98225.28
2023-01-17T15:23:03.004Z,98229.25
2023-01-17T15:26:10.028Z,98219.97
2023-01-17T15:29:22.601Z,98217.59
2023-01-17T15:32:31.696Z,98208.44
2023-01-17T15:35:34.280Z,98207.28
2023-01-17T15:38:40.650Z,98207.91
2023-01-17T15:41:43.310Z,98197.28
2023-01-17T15:44:48.863Z,98199.03
2023-01-17T15:47:51.754Z,98186.78
2023-01-17T15:50:58.905Z,98186.03
2023-01-17T15:54:24.873Z,98185.94
2023-01-17T15:57:37.354Z,98170.19
2023-01-17T16:00:41.838Z,98165.81
2023-01-17T16:03:54.676Z,98166.97
2023-01-17T16:07:19.819Z,98157.28
2023-01-17T16:10:25.556Z,98148.84
2023-01-17T16:13:34.040Z,98148.75
2023-01-17T16:16:37.441Z,98152.19
2023-01-17T16:19:40.071Z,98150.50
2023-01-17T16:22:43.916Z,98155.72
2023-01-17T16:25:48.189Z,98156.37
2023-01-17T16:28:51.761Z,98150.50
2023-01-17T16:31:55.141Z,98141.03
2023-01-17T16:34:57.994Z,98136.97
2023-01-17T16:38:02.318Z,98124.16
2023-01-17T16:41:05.623Z,98120.53
2023-01-17T16:44:08.190Z,98123.97
2023-01-17T16:47:10.896Z,98121.47
